Time;durP1;ratioP1;P1;durP2;ratioP2;P2;SDS_P1;SDS_P2;PMS_P1;PMS_P2;Temp;Humidity;BMP_temperature;BMP_pressure;BME280_temperature;BME280_humidity;BME280_pressure;Samples;Min_cycle;Max_cycle;Signal;HPM_P1;HPM_P2
2023/05/14 00:03:36;;;;;;;18.23;10.33;;;;;;;;;;10204737;29;20480;-83
2023/05/14 00:08:37;;;;;;;15.70;10.13;;;;;;;;;;10206187;29;20437;-84
2023/05/14 00:13:38;;;;;;;20.83;10.50;;;;;;;;;;10208324;29;20518;-84
2023/05/14 00:18:39;;;;;;;16.53;10.33;;;;;;;;;;10206270;29;20055;-81
2023/05/14 00:23:40;;;;;;;15.57;10.27;;;;;;;;;;10201659;29;20043;-84
2023/05/14 00:28:41;;;;;;;18.17;9.90;;;;;;;;;;10208829;29;20380;-81
2023/05/14 00:33:42;;;;;;;18.40;10.33;;;;;;;;;;10191176;29;20050;-85
2023/05/14 00:38:43;;;;;;;15.63;9.80;;;;;;;;;;10196085;29;20562;-82
2023/05/14 00:43:44;;;;;;;18.73;9.80;;;;;;;;;;10200685;29;20114;-83
2023/05/14 00:48:46;;;;;;;16.33;10.10;;;;;;;;;;10205213;29;20780;-83
2023/05/14 00:53:47;;;;;;;16.53;10.63;;;;;;;;;;10197436;29;20143;-82
2023/05/14 00:58:48;;;;;;;15.27;9.60;;;;;;;;;;10214814;29;20039;-81
2023/05/14 01:03:52;;;;;;;15.03;8.60;;;;;;;;;;10218737;29;20032;-82
2023/05/14 01:08:53;;;;;;;16.40;9.50;;;;;;;;;;10205211;29;20297;-82
2023/05/14 01:14:20;;;;;;;15.17;9.30;;;;;;;;;;10205197;29;20043;-83
2023/05/14 01:19:21;;;;;;;16.00;9.80;;;;;;;;;;10204091;29;20582;-84
2023/05/14 01:24:22;;;;;;;15.90;10.20;;;;;;;;;;10203874;29;20032;-83
2023/05/14 01:29:26;;;;;;;16.40;10.20;;;;;;;;;;10202468;29;20035;-82
2023/05/14 01:34:28;;;;;;;15.80;10.33;;;;;;;;;;10199067;29;20044;-82
2023/05/14 01:39:31;;;;;;;18.13;10.80;;;;;;;;;;10197406;29;20043;-84
2023/05/14 01:44:33;;;;;;;18.30;11.23;;;;;;;;;;10207595;29;20051;-82
2023/05/14 01:49:35;;;;;;;17.03;9.93;;;;;;;;;;10207800;29;20107;-83
2023/05/14 01:54:36;;;;;;;17.17;10.10;;;;;;;;;;10199347;29;20028;-82
2023/05/14 01:59:37;;;;;;;14.67;9.87;;;;;;;;;;10199568;29;20043;-82
2023/05/14 02:04:38;;;;;;;17.30;10.40;;;;;;;;;;10204992;29;20106;-82
2023/05/14 02:09:40;;;;;;;17.23;11.20;;;;;;;;;;10202005;29;20091;-82
2023/05/14 02:14:41;;;;;;;16.87;11.10;;;;;;;;;;10204455;29;20611;-83
2023/05/14 02:19:42;;;;;;;20.27;11.37;;;;;;;;;;10198544;29;20126;-83
2023/05/14 02:24:43;;;;;;;18.47;11.43;;;;;;;;;;10201377;29;20498;-82
2023/05/14 02:29:44;;;;;;;19.93;11.07;;;;;;;;;;10202322;29;20106;-83
2023/05/14 02:34:45;;;;;;;18.63;11.10;;;;;;;;;;10202787;29;20701;-84
2023/05/14 02:39:46;;;;;;;18.60;11.67;;;;;;;;;;10200413;29;20048;-82
2023/05/14 02:44:47;;;;;;;19.20;12.00;;;;;;;;;;10202778;29;20039;-83
2023/05/14 02:49:48;;;;;;;19.00;11.50;;;;;;;;;;10199774;29;20152;-83
2023/05/14 02:54:49;;;;;;;22.93;12.20;;;;;;;;;;10200938;29;20650;-84
2023/05/14 02:59:50;;;;;;;18.57;12.30;;;;;;;;;;10201865;29;20744;-83
2023/05/14 03:04:51;;;;;;;18.10;11.27;;;;;;;;;;10201271;29;20043;-85
2023/05/14 03:09:52;;;;;;;21.30;12.40;;;;;;;;;;10191934;29;20146;-83
2023/05/14 03:14:53;;;;;;;29.00;16.43;;;;;;;;;;10202141;29;20020;-84
2023/05/14 03:19:55;;;;;;;24.57;15.63;;;;;;;;;;10210465;29;20141;-84
2023/05/14 03:24:56;;;;;;;25.10;15.47;;;;;;;;;;10200477;29;20574;-83
2023/05/14 03:29:57;;;;;;;26.87;15.40;;;;;;;;;;10201879;29;20131;-82
2023/05/14 03:34:58;;;;;;;22.70;14.50;;;;;;;;;;10199542;29;20035;-83
2023/05/14 03:39:59;;;;;;;17.13;11.47;;;;;;;;;;10200466;29;20448;-83
2023/05/14 03:45:00;;;;;;;22.43;12.50;;;;;;;;;;10200593;29;20035;-84
2023/05/14 03:50:00;;;;;;;17.23;11.53;;;;;;;;;;10200116;29;20031;-83
2023/05/14 03:55:02;;;;;;;23.37;13.70;;;;;;;;;;10199942;29;20067;-83
2023/05/14 04:00:03;;;;;;;23.63;14.70;;;;;;;;;;10198698;29;20050;-83
2023/05/14 04:05:04;;;;;;;22.50;13.43;;;;;;;;;;10200368;29;20578;-82
2023/05/14 04:10:06;;;;;;;19.80;12.43;;;;;;;;;;10199220;29;20558;-84
2023/05/14 04:15:07;;;;;;;19.80;13.07;;;;;;;;;;10200235;29;20031;-84
2023/05/14 04:20:08;;;;;;;17.73;11.47;;;;;;;;;;10191036;29;20513;-84
2023/05/14 04:25:09;;;;;;;20.67;12.50;;;;;;;;;;10203963;29;20031;-83
2023/05/14 04:30:10;;;;;;;22.43;12.70;;;;;;;;;;10206176;29;20023;-81
2023/05/14 04:35:12;;;;;;;22.90;13.13;;;;;;;;;;10203770;29;20020;-81
2023/05/14 04:40:15;;;;;;;21.57;13.63;;;;;;;;;;10207151;29;20048;-82
2023/05/14 04:45:16;;;;;;;22.37;13.93;;;;;;;;;;10204767;29;20036;-84
2023/05/14 04:50:17;;;;;;;21.03;13.30;;;;;;;;;;10205339;29;20114;-82
2023/05/14 04:55:18;;;;;;;21.60;13.00;;;;;;;;;;10193911;29;20675;-83
2023/05/14 05:00:20;;;;;;;28.27;14.40;;;;;;;;;;10210564;29;20238;-83
2023/05/14 05:05:21;;;;;;;27.20;14.67;;;;;;;;;;10205246;29;20043;-83
2023/05/14 05:10:22;;;;;;;28.73;15.10;;;;;;;;;;10195487;29;20535;-82
2023/05/14 05:15:23;;;;;;;20.97;12.50;;;;;;;;;;10203077;29;20040;-83
2023/05/14 05:20:26;;;;;;;21.27;13.50;;;;;;;;;;10204298;29;20043;-82
2023/05/14 05:25:27;;;;;;;22.05;13.30;;;;;;;;;;10204421;29;20043;-83
2023/05/14 05:30:29;;;;;;;19.15;11.30;;;;;;;;;;10200650;29;20032;-84
2023/05/14 05:35:30;;;;;;;17.85;9.90;;;;;;;;;;10204431;29;20032;-83
2023/05/14 05:40:31;;;;;;;19.70;9.55;;;;;;;;;;10196089;29;20043;-83
2023/05/14 05:45:32;;;;;;;19.67;9.43;;;;;;;;;;10203472;29;20126;-83
2023/05/14 05:50:33;;;;;;;19.05;9.68;;;;;;;;;;10203846;29;20492;-82
2023/05/14 05:55:34;;;;;;;16.23;8.75;;;;;;;;;;10205070;29;20045;-82
2023/05/14 06:00:35;;;;;;;15.75;7.85;;;;;;;;;;10194970;29;20121;-82
2023/05/14 06:05:36;;;;;;;14.32;7.10;;;;;;;;;;10201701;29;20060;-84
2023/05/14 06:10:37;;;;;;;40.53;20.17;;;;;;;;;;10203481;29;20047;-83
2023/05/14 06:15:38;;;;;;;13.07;6.22;;;;;;;;;;10184891;29;20033;-85
2023/05/14 06:20:40;;;;;;;7.60;3.95;;;;;;;;;;10192221;29;20122;-84
2023/05/14 06:25:41;;;;;;;8.02;4.40;;;;;;;;;;10169830;29;20023;-85
2023/05/14 06:30:42;;;;;;;5.47;3.50;;;;;;;;;;10198950;29;20335;-85
2023/05/14 06:35:44;;;;;;;6.75;4.57;;;;;;;;;;10198253;29;20548;-82
2023/05/14 06:40:45;;;;;;;6.20;4.15;;;;;;;;;;10189195;29;20087;-83
2023/05/14 06:45:50;;;;;;;5.95;3.80;;;;;;;;;;10196533;29;20111;-83
2023/05/14 06:50:51;;;;;;;7.53;3.80;;;;;;;;;;10191001;29;20028;-81
2023/05/14 06:55:52;;;;;;;6.75;4.22;;;;;;;;;;10195816;29;20043;-83
2023/05/14 07:00:53;;;;;;;4.75;2.92;;;;;;;;;;10182180;29;20063;-83
2023/05/14 07:05:54;;;;;;;5.25;3.08;;;;;;;;;;10190998;29;20068;-82
2023/05/14 07:10:56;;;;;;;5.55;3.40;;;;;;;;;;10189202;29;20071;-82
2023/05/14 07:15:57;;;;;;;6.72;5.10;;;;;;;;;;10199953;29;20480;-83
2023/05/14 07:20:58;;;;;;;2.55;2.35;;;;;;;;;;10192468;29;20042;-82
2023/05/14 07:25:59;;;;;;;3.83;2.45;;;;;;;;;;10198215;29;20024;-84
2023/05/14 07:31:00;;;;;;;4.40;2.10;;;;;;;;;;10196653;29;20098;-83
2023/05/14 07:36:01;;;;;;;2.00;1.80;;;;;;;;;;10197333;29;20086;-83
2023/05/14 07:41:02;;;;;;;2.55;2.28;;;;;;;;;;10193242;29;20047;-85
2023/05/14 07:46:04;;;;;;;3.10;2.10;;;;;;;;;;10196745;29;20038;-81
2023/05/14 07:51:05;;;;;;;3.20;2.50;;;;;;;;;;10190471;29;20032;-83
2023/05/14 07:56:06;;;;;;;2.90;1.80;;;;;;;;;;10198667;29;20032;-85
2023/05/14 08:01:07;;;;;;;2.47;1.70;;;;;;;;;;10203198;29;20039;-84
2023/05/14 08:06:09;;;;;;;3.05;2.38;;;;;;;;;;10178047;29;20040;-84
2023/05/14 08:11:10;;;;;;;2.40;1.77;;;;;;;;;;10196643;29;20078;-84
2023/05/14 08:16:11;;;;;;;2.08;1.80;;;;;;;;;;10200146;29;20035;-85
2023/05/14 08:21:12;;;;;;;2.92;1.70;;;;;;;;;;10200130;29;20048;-82
2023/05/14 08:26:14;;;;;;;2.17;1.50;;;;;;;;;;10199739;29;20462;-84
2023/05/14 08:31:15;;;;;;;2.38;1.67;;;;;;;;;;10191900;29;20484;-84
2023/05/14 08:36:16;;;;;;;3.20;1.80;;;;;;;;;;10201886;29;20038;-83
2023/05/14 08:41:17;;;;;;;4.35;1.90;;;;;;;;;;10203971;29;20492;-80
2023/05/14 08:46:21;;;;;;;3.67;2.17;;;;;;;;;;10205274;29;20042;-83
2023/05/14 08:51:23;;;;;;;2.57;2.10;;;;;;;;;;10202460;29;20091;-84
2023/05/14 08:56:25;;;;;;;3.85;2.80;;;;;;;;;;10188331;29;20476;-83
2023/05/14 09:01:26;;;;;;;5.53;2.53;;;;;;;;;;10191563;29;20059;-85
2023/05/14 09:06:27;;;;;;;5.25;3.20;;;;;;;;;;10195676;29;20059;-84
2023/05/14 09:11:28;;;;;;;4.53;2.65;;;;;;;;;;10191648;29;20503;-85
2023/05/14 09:16:29;;;;;;;4.15;2.85;;;;;;;;;;10215284;28;20032;-85
2023/05/14 09:21:31;;;;;;;3.60;2.97;;;;;;;;;;10204167;29;20185;-84
2023/05/14 09:26:32;;;;;;;3.20;2.67;;;;;;;;;;10202210;29;20074;-82
2023/05/14 09:31:36;;;;;;;3.17;2.45;;;;;;;;;;10204947;29;20074;-85
2023/05/14 09:36:37;;;;;;;7.50;2.40;;;;;;;;;;10183151;29;20032;-84
2023/05/14 09:41:38;;;;;;;3.72;2.83;;;;;;;;;;10187013;29;20031;-84
2023/05/14 09:46:39;;;;;;;3.47;2.90;;;;;;;;;;10203461;29;20495;-87
2023/05/14 09:51:40;;;;;;;4.18;2.80;;;;;;;;;;10201225;29;20061;-87
2023/05/14 09:56:42;;;;;;;4.32;2.95;;;;;;;;;;10201218;29;20420;-87
2023/05/14 10:01:43;;;;;;;6.65;3.22;;;;;;;;;;10183765;29;20503;-89
2023/05/14 10:06:46;;;;;;;5.00;3.50;;;;;;;;;;10202554;29;20059;-87
2023/05/14 10:11:49;;;;;;;5.03;3.03;;;;;;;;;;10203372;29;20056;-86
2023/05/14 10:16:50;;;;;;;4.55;2.75;;;;;;;;;;10203913;29;20032;-88
2023/05/14 10:21:54;;;;;;;6.85;3.63;;;;;;;;;;10202134;29;20048;-88
2023/05/14 10:26:57;;;;;;;6.38;3.30;;;;;;;;;;10202631;29;20035;-88
2023/05/14 10:31:58;;;;;;;3.80;3.28;;;;;;;;;;10199323;29;20070;-88
2023/05/14 10:37:01;;;;;;;3.78;3.17;;;;;;;;;;10199976;29;20479;-89
2023/05/14 10:42:02;;;;;;;2.95;2.55;;;;;;;;;;10213754;29;20050;-88
2023/05/14 10:47:03;;;;;;;10.90;2.83;;;;;;;;;;10202440;29;20391;-86
2023/05/14 10:52:07;;;;;;;4.95;2.80;;;;;;;;;;10195261;29;20023;-87
2023/05/14 10:57:11;;;;;;;4.07;2.97;;;;;;;;;;10215152;29;20476;-86
2023/05/14 11:02:26;;;;;;;4.53;2.90;;;;;;;;;;10202466;29;20511;-87
2023/05/14 11:07:28;;;;;;;4.32;3.00;;;;;;;;;;10201899;29;20041;-86
2023/05/14 11:12:30;;;;;;;6.78;3.05;;;;;;;;;;10190406;29;20052;-87
2023/05/14 11:17:31;;;;;;;5.32;2.97;;;;;;;;;;10202268;29;20036;-86
2023/05/14 11:22:32;;;;;;;4.93;2.92;;;;;;;;;;10193335;29;20508;-86
2023/05/14 11:27:35;;;;;;;4.22;2.67;;;;;;;;;;10179389;29;20032;-87
2023/05/14 11:32:36;;;;;;;5.50;2.97;;;;;;;;;;10208089;28;20563;-85
2023/05/14 11:37:37;;;;;;;6.50;3.05;;;;;;;;;;10189761;29;20708;-86
2023/05/14 11:42:38;;;;;;;4.15;2.80;;;;;;;;;;10195051;29;20080;-88
2023/05/14 11:47:42;;;;;;;4.63;2.78;;;;;;;;;;10188798;29;20405;-90
2023/05/14 11:52:44;;;;;;;2.55;2.20;;;;;;;;;;10206610;29;20051;-89
2023/05/14 11:57:45;;;;;;;3.45;2.42;;;;;;;;;;10194195;29;20143;-86
2023/05/14 12:02:48;;;;;;;3.10;2.47;;;;;;;;;;10180310;29;20039;-84
2023/05/14 12:07:49;;;;;;;7.07;3.08;;;;;;;;;;10191165;29;20043;-83
2023/05/14 12:12:50;;;;;;;6.25;2.40;;;;;;;;;;10198045;29;20094;-83
2023/05/14 12:17:51;;;;;;;3.80;2.60;;;;;;;;;;10176085;29;20058;-84
2023/05/14 12:22:52;;;;;;;3.70;2.50;;;;;;;;;;10195476;29;20050;-85
2023/05/14 12:27:53;;;;;;;4.18;2.38;;;;;;;;;;10189481;29;20039;-83
2023/05/14 12:32:54;;;;;;;2.72;2.13;;;;;;;;;;10190540;29;20042;-84
2023/05/14 12:37:55;;;;;;;4.53;2.40;;;;;;;;;;10195815;29;20028;-86
2023/05/14 12:42:56;;;;;;;3.60;2.22;;;;;;;;;;10192166;29;20597;-85
2023/05/14 12:47:57;;;;;;;2.90;2.00;;;;;;;;;;10201955;29;20037;-84
2023/05/14 12:52:59;;;;;;;3.28;1.98;;;;;;;;;;10198836;29;20070;-84
2023/05/14 12:58:00;;;;;;;2.35;2.03;;;;;;;;;;10168703;29;20058;-85
2023/05/14 13:03:01;;;;;;;3.05;2.30;;;;;;;;;;10190537;29;20027;-86
2023/05/14 13:08:03;;;;;;;6.38;2.40;;;;;;;;;;10202909;29;20046;-83
2023/05/14 13:13:03;;;;;;;3.80;2.13;;;;;;;;;;10188920;29;20126;-83
2023/05/14 13:18:05;;;;;;;4.65;3.08;;;;;;;;;;10210851;29;20015;-83
2023/05/14 13:23:06;;;;;;;3.67;2.40;;;;;;;;;;10203887;29;20032;-82
2023/05/14 13:28:07;;;;;;;2.95;2.40;;;;;;;;;;10197810;29;20059;-85
2023/05/14 13:33:08;;;;;;;4.05;1.88;;;;;;;;;;10216920;29;20020;-85
2023/05/14 13:38:09;;;;;;;3.00;1.65;;;;;;;;;;10203024;29;20028;-83
2023/05/14 13:43:10;;;;;;;4.07;1.45;;;;;;;;;;10201577;29;20055;-82
2023/05/14 13:48:11;;;;;;;3.15;2.40;;;;;;;;;;10193650;29;20032;-83
2023/05/14 13:53:12;;;;;;;3.30;2.40;;;;;;;;;;10203385;29;20027;-81
2023/05/14 13:58:13;;;;;;;3.72;2.10;;;;;;;;;;10225825;23;20059;-82
2023/05/14 14:03:14;;;;;;;3.42;2.30;;;;;;;;;;10244329;28;20516;-81
2023/05/14 14:08:15;;;;;;;3.33;2.20;;;;;;;;;;10255028;28;20550;-81
2023/05/14 14:13:16;;;;;;;4.60;2.10;;;;;;;;;;10243581;28;20166;-82
2023/05/14 14:18:17;;;;;;;5.05;2.28;;;;;;;;;;10243781;28;20047;-81
2023/05/14 14:23:18;;;;;;;5.22;2.22;;;;;;;;;;10250858;28;20067;-83
2023/05/14 14:28:19;;;;;;;2.72;2.47;;;;;;;;;;10251260;28;20109;-83
2023/05/14 14:33:20;;;;;;;7.57;2.72;;;;;;;;;;10242810;28;20031;-81
2023/05/14 14:38:21;;;;;;;2.53;1.92;;;;;;;;;;10244942;28;20043;-80
2023/05/14 14:43:22;;;;;;;4.38;2.40;;;;;;;;;;10228974;28;20503;-82
2023/05/14 14:48:25;;;;;;;7.47;2.70;;;;;;;;;;10230926;28;20407;-84
2023/05/14 14:53:26;;;;;;;5.15;2.83;;;;;;;;;;10234548;28;20042;-81
2023/05/14 14:58:27;;;;;;;3.08;2.40;;;;;;;;;;10248732;28;20062;-81
2023/05/14 15:03:28;;;;;;;2.63;2.03;;;;;;;;;;10228283;28;20106;-83
2023/05/14 15:08:29;;;;;;;4.75;2.30;;;;;;;;;;10245202;28;20553;-82
2023/05/14 15:13:30;;;;;;;4.32;2.17;;;;;;;;;;10234889;28;20035;-81
2023/05/14 15:18:31;;;;;;;4.32;2.22;;;;;;;;;;10249203;28;20483;-81
2023/05/14 15:23:32;;;;;;;9.52;6.10;;;;;;;;;;10244049;28;20157;-81
2023/05/14 15:28:33;;;;;;;3.72;2.67;;;;;;;;;;10231369;29;20035;-81
2023/05/14 15:33:35;;;;;;;2.08;1.73;;;;;;;;;;10243311;28;20035;-81
2023/05/14 15:38:36;;;;;;;4.00;2.30;;;;;;;;;;10236658;29;20588;-83
2023/05/14 15:43:37;;;;;;;4.97;2.00;;;;;;;;;;10235352;28;20035;-81
2023/05/14 15:48:38;;;;;;;6.82;2.78;;;;;;;;;;10242558;28;20078;-81
2023/05/14 15:53:39;;;;;;;3.22;2.30;;;;;;;;;;10246064;28;20617;-82
2023/05/14 15:58:40;;;;;;;8.15;3.90;;;;;;;;;;10315847;23;20062;-81
2023/05/14 16:03:41;;;;;;;5.55;2.25;;;;;;;;;;10306274;28;20059;-82
2023/05/14 16:08:42;;;;;;;4.82;3.20;;;;;;;;;;10312733;28;20031;-81
2023/05/14 16:13:43;;;;;;;2.67;1.90;;;;;;;;;;10304586;28;20054;-82
2023/05/14 16:18:44;;;;;;;2.33;2.00;;;;;;;;;;10323453;28;20117;-83
2023/05/14 16:23:45;;;;;;;2.85;1.90;;;;;;;;;;10317562;28;20215;-84
2023/05/14 16:28:46;;;;;;;2.90;2.03;;;;;;;;;;10325806;28;20125;-82
2023/05/14 16:33:47;;;;;;;3.45;2.15;;;;;;;;;;10327655;28;20437;-81
2023/05/14 16:38:48;;;;;;;3.13;2.00;;;;;;;;;;10325104;28;20038;-86
2023/05/14 16:43:50;;;;;;;4.22;2.17;;;;;;;;;;10321537;28;20598;-81
2023/05/14 16:48:51;;;;;;;2.80;2.38;;;;;;;;;;10325377;28;20030;-81
2023/05/14 16:53:52;;;;;;;2.33;2.00;;;;;;;;;;10325445;28;20413;-81
2023/05/14 16:58:53;;;;;;;3.45;2.50;;;;;;;;;;10325824;28;20054;-81
2023/05/14 17:03:54;;;;;;;3.53;2.33;;;;;;;;;;10325900;28;20077;-81
2023/05/14 17:08:55;;;;;;;4.15;2.88;;;;;;;;;;10316134;28;20031;-81
2023/05/14 17:13:56;;;;;;;3.15;2.38;;;;;;;;;;10320068;28;20034;-81
2023/05/14 17:18:57;;;;;;;3.50;2.40;;;;;;;;;;10311813;28;20057;-81
2023/05/14 17:23:58;;;;;;;5.07;2.30;;;;;;;;;;10313357;28;20034;-81
2023/05/14 17:29:00;;;;;;;3.03;2.20;;;;;;;;;;10325376;28;20030;-82
2023/05/14 17:34:00;;;;;;;2.67;2.00;;;;;;;;;;10322799;28;20037;-84
2023/05/14 17:39:01;;;;;;;3.00;2.30;;;;;;;;;;10324819;28;20488;-82
2023/05/14 17:44:02;;;;;;;4.38;3.05;;;;;;;;;;10324278;28;20058;-80
2023/05/14 17:49:04;;;;;;;3.22;2.85;;;;;;;;;;10323430;28;20030;-81
2023/05/14 17:54:05;;;;;;;4.38;2.72;;;;;;;;;;10319715;28;20109;-80
2023/05/14 17:59:06;;;;;;;4.90;2.63;;;;;;;;;;10320182;28;20057;-81
2023/05/14 18:04:07;;;;;;;5.03;2.67;;;;;;;;;;10310751;28;20478;-82
2023/05/14 18:09:08;;;;;;;3.40;2.72;;;;;;;;;;10314107;28;20057;-83
2023/05/14 18:14:09;;;;;;;6.97;3.88;;;;;;;;;;10319125;28;20036;-83
2023/05/14 18:19:10;;;;;;;10.02;5.43;;;;;;;;;;10311491;28;20042;-80
2023/05/14 18:24:11;;;;;;;6.88;3.70;;;;;;;;;;10311448;28;20518;-80
2023/05/14 18:29:12;;;;;;;4.10;3.13;;;;;;;;;;10318926;28;20153;-82
2023/05/14 18:34:13;;;;;;;5.25;2.97;;;;;;;;;;10320810;28;20110;-79
2023/05/14 18:39:14;;;;;;;4.32;3.22;;;;;;;;;;10303903;28;20034;-81
2023/05/14 18:44:15;;;;;;;7.20;3.80;;;;;;;;;;10320208;28;20077;-81
2023/05/14 18:49:16;;;;;;;5.53;4.10;;;;;;;;;;10320539;28;20034;-83
2023/05/14 18:54:17;;;;;;;8.70;4.85;;;;;;;;;;10321252;28;20073;-81
2023/05/14 18:59:18;;;;;;;7.97;5.25;;;;;;;;;;10316298;28;20414;-81
2023/05/14 19:04:19;;;;;;;9.27;7.13;;;;;;;;;;10319539;28;20113;-81
2023/05/14 19:09:20;;;;;;;13.75;8.60;;;;;;;;;;10321752;28;20046;-84
2023/05/14 19:14:21;;;;;;;14.02;8.80;;;;;;;;;;10301284;28;20369;-83
2023/05/14 19:19:22;;;;;;;18.63;10.43;;;;;;;;;;10320748;28;20058;-83
2023/05/14 19:24:23;;;;;;;18.52;8.93;;;;;;;;;;10320817;28;20034;-83
2023/05/14 19:29:24;;;;;;;23.25;11.85;;;;;;;;;;10319271;28;20041;-87
2023/05/14 19:34:25;;;;;;;19.48;11.10;;;;;;;;;;10298164;28;20034;-86
2023/05/14 19:39:26;;;;;;;22.52;12.73;;;;;;;;;;10320549;28;20217;-87
2023/05/14 19:44:29;;;;;;;22.05;10.82;;;;;;;;;;10315809;28;20375;-84
2023/05/14 19:49:30;;;;;;;18.45;10.23;;;;;;;;;;10319962;28;20113;-83
2023/05/14 19:54:31;;;;;;;19.75;10.18;;;;;;;;;;10324896;28;20052;-83
2023/05/14 19:59:33;;;;;;;22.15;11.38;;;;;;;;;;10329316;28;20065;-85
2023/05/14 20:04:34;;;;;;;40.65;14.13;;;;;;;;;;10328156;28;20045;-85
2023/05/14 20:09:35;;;;;;;28.20;13.13;;;;;;;;;;10310816;28;20058;-83
2023/05/14 20:14:36;;;;;;;21.95;11.07;;;;;;;;;;10328504;28;20158;-83
2023/05/14 20:19:37;;;;;;;33.20;15.93;;;;;;;;;;10326869;28;20053;-83
2023/05/14 20:24:39;;;;;;;37.17;18.77;;;;;;;;;;10323738;28;20030;-84
2023/05/14 20:29:40;;;;;;;46.30;22.48;;;;;;;;;;10325509;28;20030;-83
2023/05/14 20:34:41;;;;;;;52.47;23.20;;;;;;;;;;10322692;28;20387;-84
2023/05/14 20:39:42;;;;;;;48.80;21.33;;;;;;;;;;10291379;28;20042;-85
2023/05/14 20:44:43;;;;;;;39.92;20.35;;;;;;;;;;10326828;28;20493;-85
2023/05/14 20:49:44;;;;;;;30.85;17.10;;;;;;;;;;10325999;28;20034;-83
2023/05/14 20:54:45;;;;;;;36.00;17.27;;;;;;;;;;10326210;28;20045;-83
2023/05/14 20:59:47;;;;;;;38.45;20.58;;;;;;;;;;10326404;28;20050;-83
2023/05/14 21:04:49;;;;;;;45.25;21.52;;;;;;;;;;10322628;28;20044;-83
2023/05/14 21:09:51;;;;;;;46.50;24.17;;;;;;;;;;10326635;28;20033;-85
2023/05/14 21:14:52;;;;;;;56.92;29.30;;;;;;;;;;10319113;28;20038;-84
2023/05/14 21:19:53;;;;;;;59.80;29.98;;;;;;;;;;10322353;28;20081;-85
2023/05/14 21:24:54;;;;;;;60.10;29.60;;;;;;;;;;10324584;28;20038;-85
2023/05/14 21:29:55;;;;;;;70.63;33.45;;;;;;;;;;10324757;28;20026;-84
2023/05/14 21:34:56;;;;;;;59.80;28.17;;;;;;;;;;10323568;28;20964;-84
2023/05/14 21:39:57;;;;;;;43.35;22.08;;;;;;;;;;10325496;28;20442;-87
2023/05/14 21:44:58;;;;;;;31.23;16.45;;;;;;;;;;10307000;28;20038;-85
2023/05/14 21:49:59;;;;;;;30.17;15.57;;;;;;;;;;10324467;28;20035;-85
2023/05/14 21:55:02;;;;;;;23.65;13.93;;;;;;;;;;10310276;28;20171;-84
2023/05/14 22:00:07;;;;;;;19.88;12.05;;;;;;;;;;10323444;28;20431;-85
2023/05/14 22:05:08;;;;;;;17.73;10.93;;;;;;;;;;10321181;28;20521;-84
2023/05/14 22:10:09;;;;;;;15.52;9.45;;;;;;;;;;10305963;28;20117;-83
2023/05/14 22:15:11;;;;;;;19.20;10.75;;;;;;;;;;10323379;28;20871;-83
2023/05/14 22:20:12;;;;;;;17.42;10.20;;;;;;;;;;10321962;28;20490;-83
2023/05/14 22:25:13;;;;;;;16.58;9.00;;;;;;;;;;10322908;28;20478;-85
2023/05/14 22:30:14;;;;;;;13.90;8.93;;;;;;;;;;10323195;28;20029;-86
2023/05/14 22:35:15;;;;;;;11.15;7.60;;;;;;;;;;10303874;28;20062;-83
2023/05/14 22:40:16;;;;;;;12.10;7.07;;;;;;;;;;10304501;28;20046;-83
2023/05/14 22:45:17;;;;;;;9.10;6.32;;;;;;;;;;10321765;28;20454;-83
2023/05/14 22:50:18;;;;;;;18.33;7.90;;;;;;;;;;10321730;28;20716;-83
2023/05/14 22:55:19;;;;;;;9.70;6.70;;;;;;;;;;10304716;28;20061;-85
2023/05/14 23:00:20;;;;;;;7.72;5.50;;;;;;;;;;10320371;28;20562;-83
2023/05/14 23:05:21;;;;;;;8.48;5.97;;;;;;;;;;10301426;28;20035;-83
2023/05/14 23:10:22;;;;;;;9.52;5.95;;;;;;;;;;10313434;28;20046;-82
2023/05/14 23:15:23;;;;;;;9.32;5.00;;;;;;;;;;10321555;28;20417;-82
2023/05/14 23:20:24;;;;;;;9.88;5.75;;;;;;;;;;10313477;28;20046;-82
2023/05/14 23:25:25;;;;;;;10.82;6.22;;;;;;;;;;10312857;28;20493;-82
2023/05/14 23:30:26;;;;;;;9.55;6.43;;;;;;;;;;10314306;28;20065;-83
2023/05/14 23:35:27;;;;;;;10.02;6.68;;;;;;;;;;10299918;28;20026;-83
2023/05/14 23:40:28;;;;;;;16.95;7.78;;;;;;;;;;10321123;28;20454;-86
2023/05/14 23:45:30;;;;;;;12.52;7.00;;;;;;;;;;10319759;28;20077;-83
2023/05/14 23:50:31;;;;;;;11.75;6.75;;;;;;;;;;10302137;28;20042;-83
2023/05/14 23:55:32;;;;;;;13.50;7.20;;;;;;;;;;10287241;28;20849;-84
